createdAt,value
2022-11-29T00:01:35.463Z,4.67
2022-11-29T00:04:03.002Z,4.77
2022-11-29T00:06:34.791Z,4.67
2022-11-29T00:09:07.517Z,4.67
2022-11-29T00:11:56.810Z,4.60
2022-11-29T00:14:24.959Z,4.47
2022-11-29T00:16:59.428Z,4.97
2022-11-29T00:19:28.930Z,4.33
2022-11-29T00:22:00.308Z,4.83
2022-11-29T00:24:28.261Z,4.77
2022-11-29T00:26:54.878Z,5.00
2022-11-29T00:29:21.530Z,4.57
2022-11-29T00:31:50.355Z,4.60
2022-11-29T00:34:17.021Z,4.60
2022-11-29T00:36:43.734Z,5.13
2022-11-29T00:39:12.098Z,4.53
2022-11-29T00:41:41.580Z,4.73
2022-11-29T00:44:09.240Z,4.77
2022-11-29T00:46:36.301Z,4.90
2022-11-29T00:49:05.791Z,5.40
2022-11-29T00:51:32.735Z,4.70
2022-11-29T00:54:01.574Z,5.00
2022-11-29T00:56:30.443Z,4.33
2022-11-29T00:58:57.142Z,4.90
2022-11-29T01:01:23.877Z,4.73
2022-11-29T01:03:50.529Z,4.37
2022-11-29T01:06:19.084Z,4.90
2022-11-29T01:08:49.492Z,4.40
2022-11-29T01:11:24.768Z,5.33
2022-11-29T01:13:55.372Z,5.10
2022-11-29T01:16:22.551Z,4.10
2022-11-29T01:18:49.313Z,4.75
2022-11-29T01:21:18.789Z,4.57
2022-11-29T01:23:46.838Z,4.67
2022-11-29T01:26:20.596Z,5.07
2022-11-29T01:28:50.661Z,4.50
2022-11-29T01:31:26.163Z,4.70
2022-11-29T01:33:54.802Z,5.20
2022-11-29T01:36:24.573Z,4.33
2022-11-29T01:38:54.495Z,4.43
2022-11-29T01:41:26.631Z,4.63
2022-11-29T01:44:01.729Z,4.27
2022-11-29T01:46:31.557Z,5.30
2022-11-29T01:49:08.197Z,4.50
2022-11-29T01:51:41.382Z,4.50
2022-11-29T01:54:10.786Z,4.77
2022-11-29T01:56:38.732Z,4.23
2022-11-29T01:59:12.603Z,4.57
2022-11-29T02:01:39.634Z,4.57
2022-11-29T02:04:07.135Z,5.40
2022-11-29T02:06:34.594Z,4.88
2022-11-29T02:09:02.112Z,4.20
2022-11-29T02:11:48.916Z,4.60
2022-11-29T02:14:37.344Z,4.70
2022-11-29T02:17:18.287Z,4.65
2022-11-29T02:20:26.287Z,4.37
2022-11-29T02:22:58.316Z,4.57
2022-11-29T02:25:46.529Z,4.13
2022-11-29T02:28:37.877Z,4.13
2022-11-29T02:31:44.345Z,4.20
2022-11-29T02:34:52.592Z,4.20
2022-11-29T02:37:34.117Z,3.87
2022-11-29T02:40:27.792Z,3.67
2022-11-29T02:43:25.339Z,4.00
2022-11-29T02:46:20.803Z,3.80
2022-11-29T02:48:58.467Z,3.92
2022-11-29T02:51:45.524Z,3.10
2022-11-29T02:54:38.521Z,3.63
2022-11-29T02:57:32.822Z,3.07
2022-11-29T03:00:07.767Z,3.57
2022-11-29T03:02:52.879Z,3.50
2022-11-29T03:06:14.292Z,3.45
2022-11-29T03:08:57.493Z,3.33
2022-11-29T03:11:30.052Z,3.20
2022-11-29T03:14:18.022Z,3.10
2022-11-29T03:16:53.491Z,3.30
2022-11-29T03:19:25.304Z,2.93
2022-11-29T03:22:07.000Z,3.17
2022-11-29T03:25:15.182Z,2.97
2022-11-29T03:27:47.483Z,2.77
2022-11-29T03:30:16.761Z,2.90
2022-11-29T03:33:01.196Z,2.43
2022-11-29T03:35:37.654Z,2.87
2022-11-29T03:38:32.082Z,2.70
2022-11-29T03:41:32.842Z,2.60
2022-11-29T03:44:06.995Z,2.73
2022-11-29T03:46:46.401Z,2.87
2022-11-29T03:49:42.533Z,2.53
2022-11-29T03:52:47.609Z,2.60
2022-11-29T03:55:46.284Z,2.10
2022-11-29T03:58:33.889Z,2.37
2022-11-29T04:01:19.049Z,2.20
2022-11-29T04:04:07.735Z,2.38
2022-11-29T04:06:54.207Z,2.70
2022-11-29T04:09:36.536Z,1.97
2022-11-29T04:12:27.628Z,2.17
2022-11-29T04:15:16.085Z,2.37
2022-11-29T04:18:14.487Z,2.10
2022-11-29T04:20:49.463Z,2.10
2022-11-29T04:23:52.801Z,1.80
2022-11-29T04:26:57.121Z,2.20
2022-11-29T04:29:41.283Z,2.00
2022-11-29T04:32:44.921Z,1.80
2022-11-29T04:35:33.841Z,1.92
2022-11-29T04:38:09.558Z,1.77
2022-11-29T04:40:54.016Z,2.00
2022-11-29T04:43:55.993Z,1.90
2022-11-29T04:46:48.927Z,1.80
2022-11-29T04:49:34.023Z,1.90
2022-11-29T04:52:24.917Z,1.50
2022-11-29T04:55:01.971Z,1.70
2022-11-29T04:58:03.988Z,1.63
2022-11-29T05:00:58.219Z,1.50
2022-11-29T05:03:51.286Z,1.77
2022-11-29T05:06:27.920Z,1.70
2022-11-29T05:09:32.919Z,1.40
2022-11-29T05:12:04.983Z,1.70
2022-11-29T05:14:31.576Z,1.80
2022-11-29T05:17:27.369Z,1.50
2022-11-29T05:20:20.095Z,1.50
2022-11-29T05:23:23.944Z,1.40
2022-11-29T05:26:08.477Z,1.60
2022-11-29T05:28:52.590Z,1.37
2022-11-29T05:31:37.858Z,1.23
2022-11-29T05:34:45.330Z,1.55
2022-11-29T05:37:14.987Z,1.57
2022-11-29T05:40:14.774Z,1.43
2022-11-29T05:43:06.583Z,1.27
2022-11-29T05:46:04.460Z,1.30
2022-11-29T05:49:15.331Z,1.50
2022-11-29T05:52:24.360Z,1.20
2022-11-29T05:55:15.272Z,1.20
2022-11-29T05:57:47.882Z,1.17
2022-11-29T06:00:16.865Z,1.10
2022-11-29T06:02:54.445Z,1.10
2022-11-29T06:05:51.056Z,1.10
2022-11-29T06:08:36.513Z,1.20
2022-11-29T06:11:20.648Z,1.20
2022-11-29T06:14:17.739Z,1.27
2022-11-29T06:16:53.330Z,1.30
2022-11-29T06:19:55.890Z,1.37
2022-11-29T06:22:53.361Z,1.10
2022-11-29T06:25:23.287Z,1.10
2022-11-29T06:27:59.601Z,1.00
2022-11-29T06:30:46.961Z,1.40
2022-11-29T06:33:24.954Z,1.60
2022-11-29T06:36:12.410Z,1.20
2022-11-29T06:38:39.655Z,1.20
2022-11-29T06:41:06.600Z,1.20
2022-11-29T06:43:33.682Z,1.30
2022-11-29T06:46:18.556Z,1.27
2022-11-29T06:48:55.493Z,1.40
2022-11-29T06:51:36.300Z,1.10
2022-11-29T06:54:30.197Z,1.20
2022-11-29T06:57:06.504Z,1.10
2022-11-29T06:59:42.280Z,1.40
2022-11-29T07:02:41.269Z,1.30
2022-11-29T07:05:07.918Z,1.55
2022-11-29T07:07:35.328Z,1.40
2022-11-29T07:10:09.417Z,1.40
2022-11-29T07:12:39.054Z,1.43
2022-11-29T07:15:06.401Z,1.30
2022-11-29T07:17:46.404Z,1.40
2022-11-29T07:20:30.665Z,1.40
2022-11-29T07:23:19.810Z,1.50
2022-11-29T07:26:19.030Z,1.40
2022-11-29T07:28:54.260Z,1.43
2022-11-29T07:31:30.416Z,1.60
2022-11-29T07:34:12.690Z,1.50
2022-11-29T07:36:44.763Z,1.40
2022-11-29T07:39:47.930Z,1.50
2022-11-29T07:42:37.123Z,1.90
2022-11-29T07:45:29.294Z,1.50
2022-11-29T07:47:56.010Z,1.92
2022-11-29T07:50:23.127Z,1.60
2022-11-29T07:52:53.528Z,1.73
2022-11-29T07:55:24.782Z,1.70
2022-11-29T07:57:52.152Z,1.80
2022-11-29T08:00:20.236Z,1.80
2022-11-29T08:02:51.086Z,1.80
2022-11-29T08:05:18.353Z,1.90
2022-11-29T08:07:46.345Z,2.17
2022-11-29T08:10:16.663Z,1.80
2022-11-29T08:12:45.440Z,2.03
2022-11-29T08:15:12.246Z,2.00
2022-11-29T08:17:39.549Z,1.97
2022-11-29T08:20:07.781Z,2.20
2022-11-29T08:22:36.723Z,2.07
2022-11-29T08:25:07.343Z,2.50
2022-11-29T08:27:34.381Z,2.60
2022-11-29T08:30:01.042Z,2.53
2022-11-29T08:32:30.008Z,2.33
2022-11-29T08:34:56.694Z,2.63
2022-11-29T08:37:23.368Z,2.73
2022-11-29T08:39:52.309Z,3.33
2022-11-29T08:42:18.923Z,3.30
2022-11-29T08:44:45.963Z,4.57
2022-11-29T08:47:31.272Z,4.10
2022-11-29T08:50:03.620Z,4.63
2022-11-29T08:52:50.825Z,4.60
2022-11-29T08:55:19.998Z,4.60
2022-11-29T08:57:50.142Z,4.93
2022-11-29T09:00:18.143Z,4.77
2022-11-29T09:02:44.855Z,5.33
2022-11-29T09:05:15.116Z,5.60
2022-11-29T09:07:42.212Z,5.10
2022-11-29T09:10:10.067Z,5.17
2022-11-29T09:12:37.713Z,5.17
2022-11-29T09:15:09.251Z,5.03
2022-11-29T09:17:36.008Z,5.23
2022-11-29T09:20:05.680Z,5.50
2022-11-29T09:22:34.623Z,5.23
2022-11-29T09:25:01.423Z,4.90
2022-11-29T09:27:30.806Z,5.17
2022-11-29T09:29:57.444Z,5.50
2022-11-29T09:32:24.216Z,5.50
2022-11-29T09:34:50.876Z,5.40
2022-11-29T09:37:17.601Z,5.20
2022-11-29T09:39:44.923Z,4.93
2022-11-29T09:42:42.003Z,4.83
2022-11-29T09:45:26.726Z,5.07
2022-11-29T09:48:25.308Z,5.67
2022-11-29T09:51:07.846Z,5.10
2022-11-29T09:53:56.049Z,4.40
2022-11-29T09:56:36.541Z,4.93
2022-11-29T09:59:13.344Z,5.00
2022-11-29T10:01:48.127Z,5.40
2022-11-29T10:04:21.676Z,5.00
2022-11-29T10:07:12.943Z,5.63
2022-11-29T10:09:49.444Z,5.17
2022-11-29T10:12:37.705Z,5.53
2022-11-29T10:15:16.878Z,4.63
2022-11-29T10:17:59.002Z,5.38
2022-11-29T10:20:42.571Z,4.93
2022-11-29T10:23:27.705Z,4.70
2022-11-29T10:25:57.080Z,4.80
2022-11-29T10:28:34.798Z,4.60
2022-11-29T10:31:26.856Z,4.70
2022-11-29T10:33:58.677Z,5.03
2022-11-29T10:36:39.346Z,4.37
2022-11-29T10:39:25.778Z,4.50
2022-11-29T10:41:56.605Z,4.27
2022-11-29T10:44:27.047Z,4.60
2022-11-29T10:46:55.710Z,4.40
2022-11-29T10:49:27.314Z,4.00
2022-11-29T10:51:54.059Z,4.27
2022-11-29T10:54:26.560Z,4.47
2022-11-29T10:56:57.757Z,3.90
2022-11-29T10:59:27.122Z,4.33
2022-11-29T11:01:57.959Z,4.03
2022-11-29T11:04:29.642Z,3.83
2022-11-29T11:07:01.212Z,3.80
2022-11-29T11:09:49.566Z,3.63
2022-11-29T11:12:16.242Z,4.13
2022-11-29T11:14:45.004Z,3.65
2022-11-29T11:17:32.978Z,3.43
2022-11-29T11:20:22.794Z,4.00
2022-11-29T11:23:07.532Z,3.93
2022-11-29T11:25:35.049Z,3.20
2022-11-29T11:28:21.775Z,3.40
2022-11-29T11:30:54.659Z,3.60
2022-11-29T11:33:21.363Z,3.57
2022-11-29T11:36:08.564Z,3.30
2022-11-29T11:38:40.642Z,3.33
2022-11-29T11:41:21.841Z,3.30
2022-11-29T11:44:02.541Z,3.57
2022-11-29T11:46:50.261Z,2.70
2022-11-29T11:49:46.039Z,2.67
2022-11-29T11:52:30.072Z,3.07
2022-11-29T11:55:21.621Z,2.77
2022-11-29T11:58:11.107Z,2.63
2022-11-29T12:04:10.448Z,2.20
2022-11-29T12:06:54.193Z,2.33
2022-11-29T12:09:44.538Z,2.13
2022-11-29T12:12:29.238Z,2.20
2022-11-29T12:15:23.842Z,2.37
2022-11-29T12:17:55.097Z,2.27
2022-11-29T12:20:32.746Z,2.23
2022-11-29T12:23:11.606Z,2.20
2022-11-29T12:25:57.819Z,2.20
2022-11-29T12:28:38.300Z,2.13
2022-11-29T12:31:20.131Z,2.10
2022-11-29T12:34:04.320Z,1.90
2022-11-29T12:36:40.391Z,1.90
2022-11-29T12:39:16.310Z,2.00
2022-11-29T12:42:01.748Z,1.70
2022-11-29T12:44:49.890Z,2.10
2022-11-29T12:47:51.646Z,2.00
2022-11-29T12:50:22.021Z,1.93
2022-11-29T12:52:54.005Z,1.93
2022-11-29T12:55:39.859Z,2.17
2022-11-29T12:58:21.807Z,1.80
2022-11-29T13:00:54.176Z,2.03
2022-11-29T13:03:27.503Z,1.70
2022-11-29T13:06:23.596Z,1.80
2022-11-29T13:09:15.359Z,1.77
2022-11-29T13:12:13.389Z,1.90
2022-11-29T13:15:10.511Z,2.13
2022-11-29T13:17:52.668Z,1.90
2022-11-29T13:20:30.691Z,2.00
2022-11-29T13:23:46.235Z,2.17
2022-11-29T13:26:18.238Z,2.00
2022-11-29T13:28:46.720Z,1.73
2022-11-29T13:31:23.070Z,1.83
2022-11-29T13:34:29.974Z,1.87
2022-11-29T13:37:14.782Z,1.90
2022-11-29T13:40:13.066Z,1.80
2022-11-29T13:42:49.680Z,1.90
2022-11-29T13:45:31.346Z,1.97
2022-11-29T13:48:27.635Z,2.20
2022-11-29T13:50:57.274Z,2.10
2022-11-29T13:53:30.603Z,2.33
2022-11-29T13:56:02.883Z,2.20
2022-11-29T13:58:30.673Z,1.93
2022-11-29T14:01:12.002Z,2.13
2022-11-29T14:03:44.988Z,2.00
2022-11-29T14:06:32.248Z,2.30
2022-11-29T14:09:23.214Z,2.10
2022-11-29T14:12:03.674Z,2.20
2022-11-29T14:14:47.748Z,1.97
2022-11-29T14:17:48.045Z,2.23
2022-11-29T14:20:24.751Z,2.35
2022-11-29T14:23:06.616Z,2.60
2022-11-29T14:25:53.448Z,2.23
2022-11-29T14:28:23.117Z,2.60
2022-11-29T14:30:54.881Z,2.50
2022-11-29T14:33:27.061Z,1.93
2022-11-29T14:35:56.428Z,2.43
2022-11-29T14:38:30.992Z,1.90
2022-11-29T14:41:17.098Z,2.53
2022-11-29T14:43:46.258Z,2.20
2022-11-29T14:46:16.027Z,2.60
2022-11-29T14:49:04.384Z,2.00
2022-11-29T14:51:33.925Z,2.40
2022-11-29T14:54:08.217Z,2.40
2022-11-29T14:56:44.999Z,2.20
2022-11-29T14:59:40.803Z,2.30
2022-11-29T15:02:13.551Z,2.50
2022-11-29T15:04:43.380Z,2.20
2022-11-29T15:07:18.513Z,2.10
2022-11-29T15:09:50.308Z,2.27
2022-11-29T15:12:26.943Z,2.20
2022-11-29T15:15:02.526Z,2.03
2022-11-29T15:17:53.513Z,2.40
2022-11-29T15:20:37.508Z,2.40
2022-11-29T15:23:09.577Z,2.40
2022-11-29T15:25:38.404Z,2.40
2022-11-29T15:28:06.343Z,2.33
2022-11-29T15:30:34.634Z,2.50
2022-11-29T15:33:08.342Z,2.30
2022-11-29T15:35:36.255Z,2.20
2022-11-29T15:38:03.457Z,2.20
2022-11-29T15:40:35.202Z,2.40
2022-11-29T15:43:16.528Z,2.53
2022-11-29T15:45:48.760Z,2.10
2022-11-29T15:48:20.517Z,2.40
2022-11-29T15:50:52.945Z,2.03
2022-11-29T15:53:27.929Z,2.63
2022-11-29T15:55:57.229Z,2.10
2022-11-29T15:58:29.494Z,2.63
2022-11-29T16:00:58.405Z,2.20
2022-11-29T16:03:32.067Z,2.20
2022-11-29T16:06:21.737Z,2.20
2022-11-29T16:08:50.566Z,2.30
2022-11-29T16:11:22.623Z,2.40
2022-11-29T16:14:03.574Z,2.43
2022-11-29T16:16:32.809Z,2.30
2022-11-29T16:19:27.417Z,2.33
2022-11-29T16:22:00.091Z,2.50
2022-11-29T16:24:26.775Z,2.50
2022-11-29T16:26:58.738Z,2.47
2022-11-29T16:29:38.036Z,2.20
2022-11-29T16:32:29.494Z,2.40
2022-11-29T16:35:03.720Z,2.30
2022-11-29T16:37:36.290Z,2.47
2022-11-29T16:40:03.241Z,2.40
2022-11-29T16:42:34.029Z,2.73
2022-11-29T16:45:00.652Z,3.00
2022-11-29T16:47:34.848Z,2.63
2022-11-29T16:50:01.488Z,2.63
2022-11-29T16:52:35.041Z,2.85
2022-11-29T16:55:01.700Z,2.70
2022-11-29T16:57:29.863Z,2.50
2022-11-29T16:59:56.529Z,2.87
2022-11-29T17:02:23.392Z,2.90
2022-11-29T17:04:53.614Z,2.77
2022-11-29T17:07:28.608Z,2.70
2022-11-29T17:09:56.389Z,3.03
2022-11-29T17:12:23.028Z,2.97
2022-11-29T17:14:49.740Z,3.10
2022-11-29T17:17:18.498Z,2.93
2022-11-29T17:19:45.624Z,2.97
2022-11-29T17:22:12.548Z,3.03
2022-11-29T17:24:44.735Z,2.90
2022-11-29T17:27:14.235Z,2.80
2022-11-29T17:29:40.928Z,2.93
2022-11-29T17:32:07.653Z,2.90
2022-11-29T17:34:34.667Z,2.73
2022-11-29T17:37:01.322Z,2.97
2022-11-29T17:39:27.981Z,2.90
2022-11-29T17:41:54.683Z,3.10
2022-11-29T17:44:21.409Z,2.90
2022-11-29T17:46:50.432Z,2.80
2022-11-29T17:49:18.615Z,2.90
2022-11-29T17:51:52.838Z,2.80
2022-11-29T17:54:20.865Z,3.20
2022-11-29T17:56:47.592Z,3.10
2022-11-29T17:59:16.610Z,3.40
2022-11-29T18:01:43.442Z,3.10
2022-11-29T18:04:10.171Z,3.03
2022-11-29T18:06:39.260Z,3.65
2022-11-29T18:09:08.551Z,3.20
2022-11-29T18:11:48.023Z,3.50
2022-11-29T18:14:28.107Z,3.53
2022-11-29T18:16:57.178Z,3.23
2022-11-29T18:19:24.421Z,4.00
2022-11-29T18:21:53.288Z,3.20
2022-11-29T18:24:22.149Z,3.77
2022-11-29T18:26:51.201Z,3.87
2022-11-29T18:29:20.550Z,3.53
2022-11-29T18:31:47.772Z,3.30
2022-11-29T18:34:14.773Z,3.00
2022-11-29T18:36:52.839Z,3.50
2022-11-29T18:39:20.199Z,3.43
2022-11-29T18:41:49.171Z,3.80
2022-11-29T18:44:18.114Z,3.57
2022-11-29T18:46:48.673Z,4.22
2022-11-29T18:49:20.704Z,3.90
2022-11-29T18:51:48.690Z,3.43
2022-11-29T18:54:17.203Z,4.17
2022-11-29T18:56:47.812Z,3.60
2022-11-29T18:59:17.315Z,3.63
2022-11-29T19:01:48.273Z,3.63
2022-11-29T19:04:18.153Z,3.73
2022-11-29T19:06:47.839Z,3.73
2022-11-29T19:09:20.851Z,4.30
2022-11-29T19:11:50.022Z,4.20
2022-11-29T19:14:19.927Z,4.50
2022-11-29T19:16:48.354Z,4.57
2022-11-29T19:19:18.904Z,4.83
2022-11-29T19:21:45.682Z,4.67
2022-11-29T19:24:14.733Z,4.77
2022-11-29T19:26:46.025Z,4.60
2022-11-29T19:29:17.091Z,4.73
2022-11-29T19:31:44.398Z,4.53
2022-11-29T19:34:13.915Z,4.60
2022-11-29T19:36:46.239Z,5.00
2022-11-29T19:39:15.293Z,4.63
2022-11-29T19:41:47.105Z,5.00
2022-11-29T19:44:16.305Z,5.13
2022-11-29T19:46:48.538Z,5.57
2022-11-29T19:49:15.561Z,5.07
2022-11-29T19:51:42.250Z,5.40
2022-11-29T19:54:10.497Z,5.07
2022-11-29T19:56:39.703Z,5.20
2022-11-29T19:59:07.526Z,5.80
2022-11-29T20:01:40.732Z,5.50
2022-11-29T20:04:09.142Z,5.73
2022-11-29T20:06:35.909Z,4.97
2022-11-29T20:09:02.781Z,5.37
2022-11-29T20:11:32.038Z,5.87
2022-11-29T20:14:03.622Z,5.43
2022-11-29T20:16:33.121Z,5.30
2022-11-29T20:19:01.541Z,6.33
2022-11-29T20:21:34.961Z,5.83
2022-11-29T20:24:04.855Z,7.07
2022-11-29T20:26:33.185Z,6.33
2022-11-29T20:29:02.811Z,7.03
2022-11-29T20:31:33.027Z,7.07
2022-11-29T20:34:02.374Z,6.83
2022-11-29T20:37:11.251Z,6.47
2022-11-29T20:39:52.185Z,6.43
2022-11-29T20:42:46.649Z,6.77
2022-11-29T20:45:16.591Z,7.78
2022-11-29T20:48:05.108Z,7.03
2022-11-29T20:50:32.288Z,6.20
2022-11-29T20:53:19.521Z,6.37
2022-11-29T20:55:48.517Z,6.50
2022-11-29T20:58:15.958Z,6.57
2022-11-29T21:00:44.768Z,7.00
2022-11-29T21:03:18.195Z,6.73
2022-11-29T21:05:45.633Z,6.27
2022-11-29T21:08:13.330Z,6.07
2022-11-29T21:10:40.270Z,6.00
2022-11-29T21:13:10.661Z,6.00
2022-11-29T21:15:40.252Z,5.80
2022-11-29T21:18:07.288Z,6.13
2022-11-29T21:20:36.474Z,5.80
2022-11-29T21:23:16.993Z,5.50
2022-11-29T21:25:54.349Z,5.93
2022-11-29T21:28:28.012Z,6.00
2022-11-29T21:30:57.483Z,5.63
2022-11-29T21:33:24.490Z,5.40
2022-11-29T21:35:54.560Z,5.07
2022-11-29T21:38:22.948Z,5.47
2022-11-29T21:40:49.648Z,4.80
2022-11-29T21:43:16.789Z,4.97
2022-11-29T21:45:45.944Z,5.30
2022-11-29T21:48:33.538Z,4.73
2022-11-29T21:51:00.486Z,4.93
2022-11-29T21:53:29.628Z,4.93
2022-11-29T21:55:58.205Z,4.70
2022-11-29T21:58:30.024Z,5.10
2022-11-29T22:01:05.902Z,4.30
2022-11-29T22:03:35.098Z,4.67
2022-11-29T22:06:07.231Z,4.40
2022-11-29T22:08:40.721Z,4.80
2022-11-29T22:11:10.464Z,4.10
2022-11-29T22:13:58.623Z,4.37
2022-11-29T22:16:25.899Z,4.77
2022-11-29T22:18:52.658Z,4.33
2022-11-29T22:21:19.635Z,5.13
2022-11-29T22:23:46.325Z,4.60
2022-11-29T22:26:15.759Z,4.17
2022-11-29T22:28:42.497Z,4.67
2022-11-29T22:31:12.504Z,4.60
2022-11-29T22:33:41.782Z,4.20
2022-11-29T22:36:11.089Z,4.47
2022-11-29T22:38:41.106Z,3.90
2022-11-29T22:41:10.232Z,3.77
2022-11-29T22:43:38.372Z,3.93
2022-11-29T22:46:10.495Z,4.23
2022-11-29T22:48:40.575Z,3.90
2022-11-29T22:51:09.578Z,4.47
2022-11-29T22:53:37.605Z,4.97
2022-11-29T22:56:09.147Z,4.57
2022-11-29T22:58:36.549Z,4.03
2022-11-29T23:01:10.501Z,4.00
2022-11-29T23:03:39.250Z,4.00
2022-11-29T23:06:13.974Z,4.20
2022-11-29T23:08:42.276Z,4.00
2022-11-29T23:11:13.758Z,3.77
2022-11-29T23:13:42.485Z,3.43
2022-11-29T23:16:12.673Z,4.00
2022-11-29T23:18:40.017Z,3.43
2022-11-29T23:21:18.327Z,3.97
2022-11-29T23:23:45.127Z,3.73
2022-11-29T23:26:27.394Z,4.22
2022-11-29T23:28:54.590Z,3.40
2022-11-29T23:31:21.937Z,4.23
2022-11-29T23:33:53.562Z,3.60
2022-11-29T23:36:20.572Z,3.80
2022-11-29T23:38:47.642Z,3.80
2022-11-29T23:41:14.724Z,3.60
2022-11-29T23:43:42.083Z,3.87
2022-11-29T23:46:20.710Z,4.50
2022-11-29T23:48:50.311Z,3.83
2022-11-29T23:51:18.518Z,3.67
2022-11-29T23:53:46.671Z,3.67
2022-11-29T23:56:15.591Z,3.90
2022-11-29T23:58:43.460Z,3.60
